METAR Data
IDs: Format: Raw Decoded Include TAF

Data at: 1336 UTC 14 Dec 2019

PAOO 141256Z AUTO 04014KT 10SM OVC026 M01/M02 A2932 RMK AO2 SLP941 T10111022 FZRANO
PAOO 141237Z AUTO 05011KT 10SM OVC028 M02/M03 A2933 RMK AO2 FZRANO
PAOO 141156Z AUTO 06012KT 10SM OVC030 M01/M03 A2935 RMK AO2 SLP949 T10111033 11006 21028 56005 FZRANO
PAOO 141056Z AUTO 05008KT 10SM OVC034 M01/M03 A2935 RMK AO2 SLP949 T10111033 FZRANO
PAOO 140956Z AUTO 05008KT 10SM OVC034 M02/M04 A2936 RMK AO2 SLP952 T10171039 FZRANO
PAOO 140856Z AUTO 07007KT 10SM SCT085 M02/M04 A2936 RMK AO2 SLP954 T10221044 410171050 58002 FZRANO
PAOO 140756Z AUTO 06009KT 10SM CLR M02/M04 A2936 RMK AO2 SLP953 T10221044 FZRANO
PAOO 140656Z AUTO 07010KT 10SM BKN034 M03/M04 A2937 RMK AO2 SLP956 T10281039 FZRANO
PAOO 140556Z AUTO 08009KT 10SM CLR M03/M04 A2937 RMK AO2 SLP955 60000 T10331044 11022 21033 53006 FZRANO
PAOO 140456Z AUTO 09011KT 10SM CLR M02/M04 A2935 RMK AO2 SNB03E17 SLP951 P0000 T10221039 FZRANO
PAOO 140356Z AUTO 09010KT 10SM BKN034 M03/M03 A2935 RMK AO2 SLP950 T10281033 FZRANO
PAOO 140256Z AUTO 08009KT 10SM SCT026 M03/M03 A2935 RMK AO2 SLP949 T10281033 53001 FZRANO
PAOO 140156Z AUTO 09011KT 10SM BKN040 M03/M03 A2934 RMK AO2 SLP948 T10281033 FZRANO
PAOO 140110Z AUTO 09011KT 10SM SCT002 SCT024 BKN033 M03/M03 A2934 RMK AO2 FZRANO
PAOO 140056Z AUTO 09011KT 10SM BKN002 M03/M03 A2934 RMK AO2 SLP946 T10281028 FZRANO
PAOO 140049Z AUTO 09012KT 2 1/2SM BR OVC002 M03/M03 A2934 RMK AO2 FZRANO
PAOO 140046Z AUTO 09009KT 1SM BR OVC002 M03/M03 A2934 RMK AO2 FZRANO
PAOO 140041Z AUTO 08008KT 1/2SM FZFG OVC002 M03/M03 A2934 RMK AO2 FZRANO
PAOO 140026Z AUTO 09006KT 3/4SM BR OVC002 M03/M03 A2935 RMK AO2 FZRANO
PAOO 140019Z AUTO 11007KT 1 3/4SM BR OVC002 M03/M03 A2935 RMK AO2 VIS 1V5 FZRANO
PAOO 140014Z AUTO 10006KT 3SM BR OVC002 M03/M03 A2935 RMK AO2 FZRANO
PAOO 132356Z AUTO 09006KT 4SM BR OVC004 M03/M03 A2934 RMK AO2 UPB06E32SNE06B32E33 SLP948 P0000 60000 T10281028 11028 21050 50006 FZRANO
PAOO 132316Z AUTO 04003KT 3SM UP BR OVC004 M04/M05 A2935 RMK AO2 UPB06SNE06 P0000 FZRANO
PAOO 132310Z AUTO 05004KT 1 1/4SM UP BR OVC004 M04/M05 A2935 RMK AO2 UPB06SNE06 P0000 FZRANO
PAOO 132256Z AUTO 07006KT 3/4SM -SN BR OVC004 M04/M05 A2935 RMK AO2 SNB49 SLP948 P0000 T10441050 FZRANO
PAOO 132254Z AUTO 06005KT 1SM -SN BR OVC004 M04/M05 A2935 RMK AO2 SNB49 P0000 FZRANO
PAOO 132250Z AUTO 07006KT 1 3/4SM -SN BR OVC006 M04/M06 A2935 RMK AO2 SNB49 P0000 FZRANO
PAOO 132156Z AUTO 09006KT 10SM OVC008 M05/M06 A2934 RMK AO2 SLP945 T10501061 FZRANO
PAOO 132056Z AUTO 10008KT 10SM OVC008 M05/M06 A2933 RMK AO2 SLP942 T10501061 53015 FZRANO
PAOO 132019Z AUTO 10008KT 10SM BKN010 OVC026 M05/M06 A2931 RMK AO2 FZRANO
PAOO 131956Z AUTO 11007KT 10SM BKN015 OVC026 M05/M06 A2931 RMK AO2 SLP935 T10501061 FZRANO
PAOO 131856Z AUTO 07006KT 10SM OVC024 M05/M06 A2928 RMK AO2 SLP927 T10501061 FZRANO
PAOO 131836Z AUTO 09005KT 10SM BKN026 OVC031 M05/M06 A2928 RMK AO2 FZRANO
PAOO 131756Z AUTO 11007KT 10SM OVC033 M05/M06 A2928 RMK AO2 SLP927 T10501061 11028 21050 53005 FZRANO
PAOO 131556Z AUTO 13004KT 10SM BKN039 OVC070 M04/M06 A2926 RMK AO2 SLP919 T10391061 FZRANO
PAOO 131456Z AUTO 13006KT 10SM OVC043 M04/M06 A2927 RMK AO2 SLP921 T10391061 50003 FZRANO
PAOO 131356Z AUTO 10007KT 10SM OVC041 M03/M06 A2927 RMK AO2 SLP922 T10331061 FZRANO
PAOO 131334Z AUTO 15003KT 10SM SCT010 OVC044 M03/M06 A2927 RMK AO2 FZRANO
PAOO 131256Z AUTO 10004KT 10SM OVC010 M03/M06 A2927 RMK AO2 SLP922 T10331056 FZRANO
PAOO 131211Z AUTO 11004KT 10SM OVC010 M03/M04 A2926 RMK AO2 FZRANO
PAOO 131156Z AUTO 09004KT 10SM OVC008 M03/M04 A2926 RMK AO2 CIG 007V010 SLP918 60000 T10281044 11022 21033 51002 FZRANO
PAOO 131056Z AUTO 08003KT 10SM OVC008 M03/M05 A2925 RMK AO2 SNE01 SLP917 P0000 T10281050 FZRANO
PAOO 130956Z AUTO 18004KT 9SM -SN OVC008 M03/M05 A2926 RMK AO2 SNE0859B29 SLP920 P0000 T10281050 FZRANO
PAOO 130856Z AUTO 18005KT 9SM -SN OVC008 M03/M04 A2925 RMK AO2 SNB38 SLP916 P0000 60000 T10281044 410111044 55001 FZRANO
PAOO 130846Z AUTO 20005KT 9SM -SN BKN008 BKN023 OVC028 M03/M04 A2925 RMK AO2 SNB38 P0000 FZRANO
PAOO 130825Z AUTO 22005KT 10SM FEW008 BKN021 OVC044 M03/M04 A2925 RMK AO2 FZRANO
PAOO 130756Z AUTO 27007KT 10SM SCT010 OVC016 M03/M03 A2924 RMK AO2 SLP913 T10281033 FZRANO
PAOO 130735Z AUTO VRB04KT 10SM FEW004 BKN010 OVC014 M03/M04 A2924 RMK AO2 FZRANO
PAOO 130726Z AUTO 14005KT 10SM SCT004 BKN008 OVC014 M03/M03 A2925 RMK AO2 FZRANO
PAOO 130718Z AUTO 13007KT 10SM SCT004 SCT008 OVC014 M02/M03 A2925 RMK AO2 FZRANO
PAOO 130656Z AUTO 29003KT 10SM OVC014 M02/M03 A2925 RMK AO2 UPB21E37SNB12E21 SLP914 P0000 T10221028 FZRANO
PAOO 130642Z AUTO 26004KT 10SM FEW009 BKN012 OVC035 M02/M03 A2925 RMK AO2 UPB21E37SNB12E21 P0000 FZRANO
PAOO 130631Z AUTO 24004KT 4SM UP BR BKN012 BKN031 OVC038 M03/M03 A2925 RMK AO2 UPB21SNB12E21 P0000 FZRANO
PAOO 130623Z AUTO 00000KT 3SM UP BR SCT009 BKN016 OVC038 M03/M03 A2926 RMK AO2 UPB21SNB12E21 P0000 FZRANO
PAOO 130556Z AUTO 30005KT 10SM OVC018 M03/M04 A2926 RMK AO2 SLP918 T10281039 11022 21044 53002 FZRANO
PAOO 130456Z AUTO 26004KT 10SM OVC024 M03/M04 A2925 RMK AO2 SLP916 T10281039 FZRANO
PAOO 130428Z AUTO 24004KT 10SM OVC028 M03/M04 A2925 RMK AO2 FZRANO
PAOO 130356Z AUTO 21007KT 10SM SCT043 M04/M05 A2925 RMK AO2 SLP916 T10391050 FZRANO
PAOO 130313Z AUTO 16005KT 10SM SCT003 SCT041 M03/M04 A2925 RMK AO2 FZRANO
PAOO 130300Z AUTO 13005KT 4SM BR BKN003 M03/M04 A2925 RMK AO2 FZRANO
PAOO 130256Z AUTO 11004KT 1 1/2SM BR OVC003 M03/M03 A2925 RMK AO2 SLP916 T10281028 51002 FZRANO
PAOO 130251Z AUTO 11003KT 3/4SM BR OVC003 M03/M03 A2925 RMK AO2 FZRANO
PAOO 130235Z AUTO 00000KT 1 3/4SM BR OVC003 M03/M03 A2925 RMK AO2 VIS 3/4V5 FZRANO
PAOO 130156Z AUTO 06003KT 10SM OVC003 M03/M03 A2925 RMK AO2 SLP916 T10281028 FZRANO